sensor_id;sensor_type;location;lat;lon;timestamp;P1;durP1;ratioP1;P2;durP2;ratioP2
20026;SDS011;10174;42.688;23.344;2022-09-21T00:00:28;16.75;;;8.68;;
20026;SDS011;10174;42.688;23.344;2022-09-21T00:02:54;12.55;;;8.02;;
20026;SDS011;10174;42.688;23.344;2022-09-21T00:05:21;18.40;;;9.15;;
20026;SDS011;10174;42.688;23.344;2022-09-21T00:07:47;11.25;;;7.93;;
20026;SDS011;10174;42.688;23.344;2022-09-21T00:10:12;15.68;;;8.20;;
20026;SDS011;10174;42.688;23.344;2022-09-21T00:12:38;15.07;;;7.47;;
20026;SDS011;10174;42.688;23.344;2022-09-21T00:15:07;17.90;;;8.32;;
20026;SDS011;10174;42.688;23.344;2022-09-21T00:17:34;18.88;;;8.60;;
20026;SDS011;10174;42.688;23.344;2022-09-21T00:20:01;14.00;;;8.02;;
20026;SDS011;10174;42.688;23.344;2022-09-21T00:22:29;14.68;;;8.48;;
20026;SDS011;10174;42.688;23.344;2022-09-21T00:24:55;16.33;;;7.75;;
20026;SDS011;10174;42.688;23.344;2022-09-21T00:27:21;10.77;;;7.85;;
20026;SDS011;10174;42.688;23.344;2022-09-21T00:29:54;21.90;;;8.27;;
20026;SDS011;10174;42.688;23.344;2022-09-21T00:32:20;13.10;;;7.95;;
20026;SDS011;10174;42.688;23.344;2022-09-21T00:34:45;11.55;;;7.57;;
20026;SDS011;10174;42.688;23.344;2022-09-21T00:37:11;16.65;;;8.65;;
20026;SDS011;10174;42.688;23.344;2022-09-21T00:39:37;14.98;;;8.85;;
20026;SDS011;10174;42.688;23.344;2022-09-21T00:42:07;19.17;;;8.30;;
20026;SDS011;10174;42.688;23.344;2022-09-21T00:44:34;16.67;;;8.38;;
20026;SDS011;10174;42.688;23.344;2022-09-21T00:47:01;12.38;;;7.63;;
20026;SDS011;10174;42.688;23.344;2022-09-21T00:49:32;15.43;;;8.25;;
20026;SDS011;10174;42.688;23.344;2022-09-21T00:51:59;13.70;;;7.88;;
20026;SDS011;10174;42.688;23.344;2022-09-21T00:54:29;13.35;;;7.75;;
20026;SDS011;10174;42.688;23.344;2022-09-21T00:57:03;15.55;;;8.23;;
20026;SDS011;10174;42.688;23.344;2022-09-21T00:59:33;17.80;;;8.30;;
20026;SDS011;10174;42.688;23.344;2022-09-21T01:02:01;16.65;;;8.60;;
20026;SDS011;10174;42.688;23.344;2022-09-21T01:04:27;20.98;;;11.95;;
20026;SDS011;10174;42.688;23.344;2022-09-21T01:06:54;21.00;;;12.25;;
20026;SDS011;10174;42.688;23.344;2022-09-21T01:09:21;13.02;;;8.15;;
20026;SDS011;10174;42.688;23.344;2022-09-21T01:17:00;13.57;;;8.35;;
20026;SDS011;10174;42.688;23.344;2022-09-21T01:27:37;12.65;;;7.60;;
20026;SDS011;10174;42.688;23.344;2022-09-21T01:30:04;13.45;;;8.38;;
20026;SDS011;10174;42.688;23.344;2022-09-21T01:32:40;12.60;;;8.05;;
20026;SDS011;10174;42.688;23.344;2022-09-21T01:35:15;16.38;;;7.88;;
20026;SDS011;10174;42.688;23.344;2022-09-21T01:38:04;15.32;;;8.52;;
20026;SDS011;10174;42.688;23.344;2022-09-21T01:40:35;17.25;;;9.27;;
20026;SDS011;10174;42.688;23.344;2022-09-21T01:43:05;16.42;;;7.57;;
20026;SDS011;10174;42.688;23.344;2022-09-21T01:45:34;12.15;;;7.85;;
20026;SDS011;10174;42.688;23.344;2022-09-21T01:48:04;15.25;;;8.18;;
20026;SDS011;10174;42.688;23.344;2022-09-21T01:50:32;15.05;;;7.68;;
20026;SDS011;10174;42.688;23.344;2022-09-21T01:53:12;15.90;;;8.77;;
20026;SDS011;10174;42.688;23.344;2022-09-21T01:55:51;12.32;;;7.63;;
20026;SDS011;10174;42.688;23.344;2022-09-21T02:01:03;15.85;;;8.60;;
20026;SDS011;10174;42.688;23.344;2022-09-21T02:03:38;14.20;;;7.90;;
20026;SDS011;10174;42.688;23.344;2022-09-21T02:06:11;18.55;;;8.32;;
20026;SDS011;10174;42.688;23.344;2022-09-21T02:08:38;21.48;;;9.65;;
20026;SDS011;10174;42.688;23.344;2022-09-21T02:11:04;21.10;;;9.13;;
20026;SDS011;10174;42.688;23.344;2022-09-21T02:13:34;15.90;;;8.73;;
20026;SDS011;10174;42.688;23.344;2022-09-21T02:20:57;18.92;;;9.07;;
20026;SDS011;10174;42.688;23.344;2022-09-21T02:23:40;15.55;;;8.02;;
20026;SDS011;10174;42.688;23.344;2022-09-21T02:26:12;19.15;;;8.80;;
20026;SDS011;10174;42.688;23.344;2022-09-21T02:37:11;11.38;;;7.38;;
20026;SDS011;10174;42.688;23.344;2022-09-21T02:39:47;13.23;;;7.17;;
20026;SDS011;10174;42.688;23.344;2022-09-21T02:42:29;13.35;;;7.55;;
20026;SDS011;10174;42.688;23.344;2022-09-21T02:45:06;10.52;;;7.53;;
20026;SDS011;10174;42.688;23.344;2022-09-21T02:47:35;12.07;;;8.02;;
20026;SDS011;10174;42.688;23.344;2022-09-21T02:50:08;12.48;;;7.70;;
20026;SDS011;10174;42.688;23.344;2022-09-21T02:52:38;11.73;;;7.25;;
20026;SDS011;10174;42.688;23.344;2022-09-21T02:55:07;12.27;;;7.40;;
20026;SDS011;10174;42.688;23.344;2022-09-21T02:57:34;17.98;;;7.60;;
20026;SDS011;10174;42.688;23.344;2022-09-21T03:00:01;12.63;;;7.38;;
20026;SDS011;10174;42.688;23.344;2022-09-21T03:02:36;13.50;;;8.55;;
20026;SDS011;10174;42.688;23.344;2022-09-21T03:05:07;16.65;;;8.82;;
20026;SDS011;10174;42.688;23.344;2022-09-21T03:07:34;13.63;;;7.70;;
20026;SDS011;10174;42.688;23.344;2022-09-21T03:09:59;25.80;;;8.48;;
20026;SDS011;10174;42.688;23.344;2022-09-21T03:12:25;21.80;;;8.65;;
20026;SDS011;10174;42.688;23.344;2022-09-21T03:14:51;15.63;;;8.90;;
20026;SDS011;10174;42.688;23.344;2022-09-21T03:17:17;15.43;;;8.05;;
20026;SDS011;10174;42.688;23.344;2022-09-21T03:19:43;20.90;;;9.20;;
20026;SDS011;10174;42.688;23.344;2022-09-21T03:22:08;15.23;;;8.43;;
20026;SDS011;10174;42.688;23.344;2022-09-21T03:24:33;21.88;;;8.93;;
20026;SDS011;10174;42.688;23.344;2022-09-21T03:27:11;18.73;;;9.88;;
20026;SDS011;10174;42.688;23.344;2022-09-21T03:29:38;20.20;;;9.07;;
20026;SDS011;10174;42.688;23.344;2022-09-21T03:32:04;17.67;;;8.35;;
20026;SDS011;10174;42.688;23.344;2022-09-21T03:34:30;18.60;;;9.32;;
20026;SDS011;10174;42.688;23.344;2022-09-21T03:36:57;12.35;;;8.55;;
20026;SDS011;10174;42.688;23.344;2022-09-21T03:39:24;13.93;;;8.68;;
20026;SDS011;10174;42.688;23.344;2022-09-21T03:41:49;19.42;;;8.68;;
20026;SDS011;10174;42.688;23.344;2022-09-21T03:44:15;15.10;;;9.13;;
20026;SDS011;10174;42.688;23.344;2022-09-21T03:46:41;21.15;;;9.45;;
20026;SDS011;10174;42.688;23.344;2022-09-21T03:49:07;20.60;;;9.68;;
20026;SDS011;10174;42.688;23.344;2022-09-21T03:51:32;25.60;;;9.63;;
20026;SDS011;10174;42.688;23.344;2022-09-21T03:53:58;18.65;;;9.57;;
20026;SDS011;10174;42.688;23.344;2022-09-21T03:56:23;18.38;;;8.75;;
20026;SDS011;10174;42.688;23.344;2022-09-21T03:58:49;15.93;;;9.55;;
20026;SDS011;10174;42.688;23.344;2022-09-21T04:01:14;23.10;;;9.20;;
20026;SDS011;10174;42.688;23.344;2022-09-21T04:03:39;23.75;;;8.73;;
20026;SDS011;10174;42.688;23.344;2022-09-21T04:06:09;17.38;;;9.70;;
20026;SDS011;10174;42.688;23.344;2022-09-21T04:08:35;19.38;;;9.50;;
20026;SDS011;10174;42.688;23.344;2022-09-21T04:11:01;33.72;;;9.77;;
20026;SDS011;10174;42.688;23.344;2022-09-21T04:13:33;24.35;;;11.50;;
20026;SDS011;10174;42.688;23.344;2022-09-21T04:16:00;31.10;;;11.20;;
20026;SDS011;10174;42.688;23.344;2022-09-21T04:18:26;30.23;;;12.45;;
20026;SDS011;10174;42.688;23.344;2022-09-21T04:20:51;23.80;;;10.88;;
20026;SDS011;10174;42.688;23.344;2022-09-21T04:23:17;29.30;;;10.95;;
20026;SDS011;10174;42.688;23.344;2022-09-21T04:25:44;29.15;;;10.65;;
20026;SDS011;10174;42.688;23.344;2022-09-21T04:28:12;22.67;;;10.32;;
20026;SDS011;10174;42.688;23.344;2022-09-21T04:30:38;20.45;;;9.70;;
20026;SDS011;10174;42.688;23.344;2022-09-21T04:33:04;23.05;;;10.02;;
20026;SDS011;10174;42.688;23.344;2022-09-21T04:35:30;24.08;;;10.85;;
20026;SDS011;10174;42.688;23.344;2022-09-21T04:37:55;29.73;;;12.88;;
20026;SDS011;10174;42.688;23.344;2022-09-21T04:40:21;41.40;;;11.57;;
20026;SDS011;10174;42.688;23.344;2022-09-21T04:42:50;27.50;;;11.68;;
20026;SDS011;10174;42.688;23.344;2022-09-21T04:45:18;28.13;;;12.30;;
20026;SDS011;10174;42.688;23.344;2022-09-21T04:47:46;21.52;;;10.30;;
20026;SDS011;10174;42.688;23.344;2022-09-21T04:50:12;20.98;;;9.73;;
20026;SDS011;10174;42.688;23.344;2022-09-21T04:52:38;23.83;;;11.20;;
20026;SDS011;10174;42.688;23.344;2022-09-21T04:55:04;30.45;;;15.52;;
20026;SDS011;10174;42.688;23.344;2022-09-21T04:57:30;19.27;;;10.18;;
20026;SDS011;10174;42.688;23.344;2022-09-21T04:59:55;27.75;;;13.52;;
20026;SDS011;10174;42.688;23.344;2022-09-21T05:02:21;17.95;;;9.85;;
20026;SDS011;10174;42.688;23.344;2022-09-21T05:04:46;20.83;;;9.65;;
20026;SDS011;10174;42.688;23.344;2022-09-21T05:07:12;23.08;;;9.13;;
20026;SDS011;10174;42.688;23.344;2022-09-21T05:09:37;23.98;;;9.80;;
20026;SDS011;10174;42.688;23.344;2022-09-21T05:12:21;19.35;;;9.90;;
20026;SDS011;10174;42.688;23.344;2022-09-21T05:14:46;23.33;;;9.88;;
20026;SDS011;10174;42.688;23.344;2022-09-21T05:17:12;16.83;;;9.43;;
20026;SDS011;10174;42.688;23.344;2022-09-21T05:19:38;25.90;;;10.15;;
20026;SDS011;10174;42.688;23.344;2022-09-21T05:22:03;21.58;;;10.02;;
20026;SDS011;10174;42.688;23.344;2022-09-21T05:24:29;31.23;;;12.48;;
20026;SDS011;10174;42.688;23.344;2022-09-21T05:26:54;28.90;;;9.73;;
20026;SDS011;10174;42.688;23.344;2022-09-21T05:29:20;25.63;;;11.13;;
20026;SDS011;10174;42.688;23.344;2022-09-21T05:34:55;42.63;;;15.43;;
20026;SDS011;10174;42.688;23.344;2022-09-21T05:37:36;29.77;;;12.52;;
20026;SDS011;10174;42.688;23.344;2022-09-21T05:40:02;21.63;;;10.60;;
20026;SDS011;10174;42.688;23.344;2022-09-21T05:42:29;26.90;;;11.68;;
20026;SDS011;10174;42.688;23.344;2022-09-21T05:44:55;25.83;;;10.90;;
20026;SDS011;10174;42.688;23.344;2022-09-21T05:52:48;34.08;;;15.10;;
20026;SDS011;10174;42.688;23.344;2022-09-21T06:03:54;22.88;;;12.05;;
20026;SDS011;10174;42.688;23.344;2022-09-21T06:06:22;45.55;;;18.63;;
20026;SDS011;10174;42.688;23.344;2022-09-21T06:08:47;18.98;;;10.35;;
20026;SDS011;10174;42.688;23.344;2022-09-21T06:11:13;27.95;;;10.10;;
20026;SDS011;10174;42.688;23.344;2022-09-21T06:13:39;25.75;;;10.82;;
20026;SDS011;10174;42.688;23.344;2022-09-21T06:16:07;19.50;;;8.80;;
20026;SDS011;10174;42.688;23.344;2022-09-21T06:18:38;24.50;;;8.85;;
20026;SDS011;10174;42.688;23.344;2022-09-21T06:21:08;27.27;;;9.70;;
20026;SDS011;10174;42.688;23.344;2022-09-21T06:23:34;20.63;;;10.02;;
20026;SDS011;10174;42.688;23.344;2022-09-21T06:25:59;24.08;;;9.02;;
20026;SDS011;10174;42.688;23.344;2022-09-21T06:28:25;23.80;;;9.15;;
20026;SDS011;10174;42.688;23.344;2022-09-21T06:30:52;18.65;;;7.88;;
20026;SDS011;10174;42.688;23.344;2022-09-21T06:33:19;17.95;;;7.97;;
20026;SDS011;10174;42.688;23.344;2022-09-21T06:35:54;19.30;;;8.23;;
20026;SDS011;10174;42.688;23.344;2022-09-21T06:38:21;14.13;;;5.22;;
20026;SDS011;10174;42.688;23.344;2022-09-21T06:40:48;11.95;;;5.50;;
20026;SDS011;10174;42.688;23.344;2022-09-21T06:43:14;15.93;;;4.07;;
20026;SDS011;10174;42.688;23.344;2022-09-21T06:45:39;11.55;;;4.47;;
20026;SDS011;10174;42.688;23.344;2022-09-21T06:48:05;11.60;;;5.22;;
20026;SDS011;10174;42.688;23.344;2022-09-21T06:50:31;8.30;;;3.83;;
20026;SDS011;10174;42.688;23.344;2022-09-21T06:53:00;10.50;;;4.18;;
20026;SDS011;10174;42.688;23.344;2022-09-21T06:55:26;8.23;;;4.05;;
20026;SDS011;10174;42.688;23.344;2022-09-21T06:57:52;7.93;;;4.00;;
20026;SDS011;10174;42.688;23.344;2022-09-21T07:00:18;9.38;;;3.55;;
20026;SDS011;10174;42.688;23.344;2022-09-21T07:05:09;10.57;;;4.25;;
20026;SDS011;10174;42.688;23.344;2022-09-21T07:10:01;7.80;;;3.50;;
20026;SDS011;10174;42.688;23.344;2022-09-21T07:14:59;9.55;;;5.18;;
20026;SDS011;10174;42.688;23.344;2022-09-21T07:17:30;10.05;;;4.55;;
20026;SDS011;10174;42.688;23.344;2022-09-21T07:20:00;25.08;;;8.02;;
20026;SDS011;10174;42.688;23.344;2022-09-21T07:22:29;14.48;;;8.00;;
20026;SDS011;10174;42.688;23.344;2022-09-21T07:24:55;7.50;;;4.53;;
20026;SDS011;10174;42.688;23.344;2022-09-21T07:27:21;6.90;;;3.70;;
20026;SDS011;10174;42.688;23.344;2022-09-21T07:29:47;5.68;;;3.50;;
20026;SDS011;10174;42.688;23.344;2022-09-21T07:32:13;6.85;;;3.63;;
20026;SDS011;10174;42.688;23.344;2022-09-21T07:37:04;7.55;;;4.38;;
20026;SDS011;10174;42.688;23.344;2022-09-21T07:39:29;7.53;;;3.53;;
20026;SDS011;10174;42.688;23.344;2022-09-21T07:41:55;5.55;;;3.63;;
20026;SDS011;10174;42.688;23.344;2022-09-21T07:44:22;7.85;;;3.72;;
20026;SDS011;10174;42.688;23.344;2022-09-21T07:46:48;7.25;;;3.42;;
20026;SDS011;10174;42.688;23.344;2022-09-21T07:49:13;5.38;;;3.55;;
20026;SDS011;10174;42.688;23.344;2022-09-21T07:51:39;7.20;;;3.97;;
20026;SDS011;10174;42.688;23.344;2022-09-21T07:54:04;9.23;;;4.38;;
20026;SDS011;10174;42.688;23.344;2022-09-21T07:56:30;10.85;;;3.47;;
20026;SDS011;10174;42.688;23.344;2022-09-21T07:58:55;13.50;;;4.30;;
20026;SDS011;10174;42.688;23.344;2022-09-21T08:01:30;9.93;;;5.53;;
20026;SDS011;10174;42.688;23.344;2022-09-21T08:04:00;8.32;;;3.85;;
20026;SDS011;10174;42.688;23.344;2022-09-21T08:06:28;8.52;;;3.90;;
20026;SDS011;10174;42.688;23.344;2022-09-21T08:08:56;9.43;;;3.90;;
20026;SDS011;10174;42.688;23.344;2022-09-21T08:11:23;7.40;;;3.78;;
20026;SDS011;10174;42.688;23.344;2022-09-21T08:13:53;12.88;;;3.50;;
20026;SDS011;10174;42.688;23.344;2022-09-21T08:16:20;6.00;;;3.45;;
20026;SDS011;10174;42.688;23.344;2022-09-21T08:18:45;7.07;;;3.17;;
20026;SDS011;10174;42.688;23.344;2022-09-21T08:21:11;7.28;;;3.10;;
20026;SDS011;10174;42.688;23.344;2022-09-21T08:23:38;12.73;;;4.20;;
20026;SDS011;10174;42.688;23.344;2022-09-21T08:26:07;6.82;;;3.30;;
20026;SDS011;10174;42.688;23.344;2022-09-21T08:28:35;8.70;;;2.80;;
20026;SDS011;10174;42.688;23.344;2022-09-21T08:31:04;7.82;;;3.00;;
20026;SDS011;10174;42.688;23.344;2022-09-21T08:33:34;5.32;;;3.13;;
20026;SDS011;10174;42.688;23.344;2022-09-21T08:36:00;8.43;;;2.88;;
20026;SDS011;10174;42.688;23.344;2022-09-21T08:38:26;6.28;;;2.50;;
20026;SDS011;10174;42.688;23.344;2022-09-21T08:40:57;6.47;;;2.75;;
20026;SDS011;10174;42.688;23.344;2022-09-21T08:43:33;8.18;;;3.08;;
20026;SDS011;10174;42.688;23.344;2022-09-21T08:48:32;4.47;;;2.67;;
20026;SDS011;10174;42.688;23.344;2022-09-21T08:51:05;4.85;;;2.42;;
20026;SDS011;10174;42.688;23.344;2022-09-21T08:53:37;5.45;;;2.30;;
20026;SDS011;10174;42.688;23.344;2022-09-21T08:56:07;8.02;;;2.75;;
20026;SDS011;10174;42.688;23.344;2022-09-21T08:58:37;5.20;;;2.05;;
20026;SDS011;10174;42.688;23.344;2022-09-21T09:20:40;4.38;;;1.98;;
20026;SDS011;10174;42.688;23.344;2022-09-21T09:23:18;6.75;;;2.42;;
20026;SDS011;10174;42.688;23.344;2022-09-21T09:25:48;2.95;;;1.45;;
20026;SDS011;10174;42.688;23.344;2022-09-21T09:31:00;6.75;;;1.90;;
20026;SDS011;10174;42.688;23.344;2022-09-21T09:36:19;3.78;;;2.63;;
20026;SDS011;10174;42.688;23.344;2022-09-21T09:38:52;5.93;;;1.83;;
20026;SDS011;10174;42.688;23.344;2022-09-21T09:52:04;4.53;;;1.63;;
20026;SDS011;10174;42.688;23.344;2022-09-21T09:54:33;2.78;;;1.30;;
20026;SDS011;10174;42.688;23.344;2022-09-21T09:57:00;2.08;;;1.60;;
20026;SDS011;10174;42.688;23.344;2022-09-21T09:59:34;3.92;;;1.77;;
20026;SDS011;10174;42.688;23.344;2022-09-21T10:02:17;2.67;;;1.70;;
20026;SDS011;10174;42.688;23.344;2022-09-21T10:04:54;5.13;;;2.40;;
20026;SDS011;10174;42.688;23.344;2022-09-21T10:07:30;5.25;;;2.80;;
20026;SDS011;10174;42.688;23.344;2022-09-21T10:09:58;5.85;;;1.95;;
20026;SDS011;10174;42.688;23.344;2022-09-21T10:12:24;4.85;;;2.03;;
20026;SDS011;10174;42.688;23.344;2022-09-21T10:14:51;231.45;;;18.08;;
20026;SDS011;10174;42.688;23.344;2022-09-21T10:17:19;9.45;;;2.65;;
20026;SDS011;10174;42.688;23.344;2022-09-21T10:19:47;5.47;;;1.92;;
20026;SDS011;10174;42.688;23.344;2022-09-21T10:22:16;4.07;;;2.13;;
20026;SDS011;10174;42.688;23.344;2022-09-21T10:24:53;5.45;;;1.65;;
20026;SDS011;10174;42.688;23.344;2022-09-21T10:27:39;3.83;;;1.27;;
20026;SDS011;10174;42.688;23.344;2022-09-21T10:30:30;2.40;;;1.33;;
20026;SDS011;10174;42.688;23.344;2022-09-21T10:32:57;172.77;;;13.93;;
20026;SDS011;10174;42.688;23.344;2022-09-21T10:35:23;8.60;;;1.35;;
20026;SDS011;10174;42.688;23.344;2022-09-21T10:38:07;2.00;;;1.15;;
20026;SDS011;10174;42.688;23.344;2022-09-21T10:40:35;1.80;;;1.10;;
20026;SDS011;10174;42.688;23.344;2022-09-21T10:43:02;9.93;;;1.88;;
20026;SDS011;10174;42.688;23.344;2022-09-21T10:45:28;2.58;;;1.17;;
20026;SDS011;10174;42.688;23.344;2022-09-21T10:52:49;1.63;;;0.77;;
20026;SDS011;10174;42.688;23.344;2022-09-21T10:55:21;2.22;;;1.10;;
20026;SDS011;10174;42.688;23.344;2022-09-21T10:57:48;1.42;;;1.00;;
20026;SDS011;10174;42.688;23.344;2022-09-21T11:02:50;6.60;;;1.42;;
20026;SDS011;10174;42.688;23.344;2022-09-21T11:05:18;3.17;;;1.20;;
20026;SDS011;10174;42.688;23.344;2022-09-21T11:10:32;4.13;;;1.60;;
20026;SDS011;10174;42.688;23.344;2022-09-21T11:15:48;4.65;;;1.17;;
20026;SDS011;10174;42.688;23.344;2022-09-21T11:21:08;4.32;;;1.13;;
20026;SDS011;10174;42.688;23.344;2022-09-21T11:29:02;1.88;;;1.10;;
20026;SDS011;10174;42.688;23.344;2022-09-21T11:42:34;3.58;;;1.27;;
20026;SDS011;10174;42.688;23.344;2022-09-21T11:45:30;2.40;;;1.40;;
20026;SDS011;10174;42.688;23.344;2022-09-21T11:51:00;330.73;;;23.70;;
20026;SDS011;10174;42.688;23.344;2022-09-21T11:56:26;130.98;;;9.27;;
20026;SDS011;10174;42.688;23.344;2022-09-21T11:59:25;12.88;;;1.83;;
20026;SDS011;10174;42.688;23.344;2022-09-21T12:02:09;9.63;;;4.68;;
20026;SDS011;10174;42.688;23.344;2022-09-21T12:13:15;2.70;;;0.80;;
20026;SDS011;10174;42.688;23.344;2022-09-21T12:15:50;2.97;;;1.10;;
20026;SDS011;10174;42.688;23.344;2022-09-21T12:22:02;3.38;;;1.08;;
20026;SDS011;10174;42.688;23.344;2022-09-21T12:24:26;2.88;;;1.20;;
20026;SDS011;10174;42.688;23.344;2022-09-21T12:26:57;3.85;;;1.00;;
20026;SDS011;10174;42.688;23.344;2022-09-21T12:29:43;2.63;;;1.33;;
20026;SDS011;10174;42.688;23.344;2022-09-21T12:34:47;22.40;;;8.07;;
20026;SDS011;10174;42.688;23.344;2022-09-21T12:37:34;3.28;;;1.70;;
20026;SDS011;10174;42.688;23.344;2022-09-21T12:40:14;4.00;;;1.20;;
20026;SDS011;10174;42.688;23.344;2022-09-21T12:42:49;2.05;;;1.42;;
20026;SDS011;10174;42.688;23.344;2022-09-21T12:45:27;12.70;;;2.85;;
20026;SDS011;10174;42.688;23.344;2022-09-21T12:53:21;7.20;;;1.73;;
20026;SDS011;10174;42.688;23.344;2022-09-21T12:58:52;6.30;;;1.92;;
20026;SDS011;10174;42.688;23.344;2022-09-21T13:01:46;1.40;;;1.25;;
20026;SDS011;10174;42.688;23.344;2022-09-21T13:04:38;2.70;;;1.40;;
20026;SDS011;10174;42.688;23.344;2022-09-21T13:09:56;8.35;;;3.85;;
20026;SDS011;10174;42.688;23.344;2022-09-21T13:12:25;4.10;;;1.60;;
20026;SDS011;10174;42.688;23.344;2022-09-21T13:15:02;6.47;;;2.25;;
20026;SDS011;10174;42.688;23.344;2022-09-21T13:17:37;6.55;;;1.67;;
20026;SDS011;10174;42.688;23.344;2022-09-21T13:20:04;3.88;;;1.15;;
20026;SDS011;10174;42.688;23.344;2022-09-21T13:22:39;5.13;;;1.20;;
20026;SDS011;10174;42.688;23.344;2022-09-21T13:25:06;7.55;;;2.90;;
20026;SDS011;10174;42.688;23.344;2022-09-21T13:30:36;3.42;;;0.90;;
20026;SDS011;10174;42.688;23.344;2022-09-21T13:34:04;1.55;;;0.70;;
20026;SDS011;10174;42.688;23.344;2022-09-21T13:36:01;1.58;;;0.90;;
20026;SDS011;10174;42.688;23.344;2022-09-21T13:43:47;3.05;;;0.90;;
20026;SDS011;10174;42.688;23.344;2022-09-21T13:54:37;1.45;;;1.00;;
20026;SDS011;10174;42.688;23.344;2022-09-21T13:57:29;2.55;;;1.67;;
20026;SDS011;10174;42.688;23.344;2022-09-21T14:02:38;3.13;;;2.40;;
20026;SDS011;10174;42.688;23.344;2022-09-21T14:05:26;2.97;;;1.73;;
20026;SDS011;10174;42.688;23.344;2022-09-21T14:07:58;1.55;;;1.42;;
20026;SDS011;10174;42.688;23.344;2022-09-21T14:10:26;2.38;;;1.52;;
20026;SDS011;10174;42.688;23.344;2022-09-21T14:12:56;7.18;;;4.65;;
20026;SDS011;10174;42.688;23.344;2022-09-21T14:21:06;12.60;;;3.53;;
20026;SDS011;10174;42.688;23.344;2022-09-21T14:23:41;5.97;;;2.20;;
20026;SDS011;10174;42.688;23.344;2022-09-21T14:29:14;8.13;;;4.88;;
20026;SDS011;10174;42.688;23.344;2022-09-21T14:31:41;5.70;;;2.60;;
20026;SDS011;10174;42.688;23.344;2022-09-21T14:36:44;5.38;;;2.10;;
20026;SDS011;10174;42.688;23.344;2022-09-21T14:39:24;7.65;;;3.50;;
20026;SDS011;10174;42.688;23.344;2022-09-21T14:41:55;3.67;;;1.73;;
20026;SDS011;10174;42.688;23.344;2022-09-21T14:44:26;4.65;;;2.33;;
20026;SDS011;10174;42.688;23.344;2022-09-21T14:50:05;2.75;;;2.17;;
20026;SDS011;10174;42.688;23.344;2022-09-21T14:52:48;7.30;;;2.53;;
20026;SDS011;10174;42.688;23.344;2022-09-21T15:01:33;4.35;;;2.70;;
20026;SDS011;10174;42.688;23.344;2022-09-21T15:12:49;4.00;;;2.55;;
20026;SDS011;10174;42.688;23.344;2022-09-21T15:18:38;9.15;;;2.85;;
20026;SDS011;10174;42.688;23.344;2022-09-21T15:21:17;7.05;;;2.53;;
20026;SDS011;10174;42.688;23.344;2022-09-21T15:23:54;3.50;;;2.38;;
20026;SDS011;10174;42.688;23.344;2022-09-21T15:26:21;3.00;;;2.35;;
20026;SDS011;10174;42.688;23.344;2022-09-21T15:29:11;5.78;;;2.40;;
20026;SDS011;10174;42.688;23.344;2022-09-21T15:31:48;6.10;;;2.35;;
20026;SDS011;10174;42.688;23.344;2022-09-21T15:34:14;6.95;;;3.08;;
20026;SDS011;10174;42.688;23.344;2022-09-21T15:39:06;4.30;;;2.20;;
20026;SDS011;10174;42.688;23.344;2022-09-21T15:41:44;5.00;;;2.58;;
20026;SDS011;10174;42.688;23.344;2022-09-21T15:46:51;8.57;;;4.93;;
20026;SDS011;10174;42.688;23.344;2022-09-21T15:49:24;16.95;;;8.90;;
20026;SDS011;10174;42.688;23.344;2022-09-21T15:54:36;2.13;;;1.65;;
20026;SDS011;10174;42.688;23.344;2022-09-21T15:57:21;3.33;;;2.00;;
20026;SDS011;10174;42.688;23.344;2022-09-21T15:59:48;3.40;;;2.05;;
20026;SDS011;10174;42.688;23.344;2022-09-21T16:02:16;5.85;;;2.25;;
20026;SDS011;10174;42.688;23.344;2022-09-21T16:04:46;3.45;;;2.17;;
20026;SDS011;10174;42.688;23.344;2022-09-21T16:09:57;3.55;;;2.25;;
20026;SDS011;10174;42.688;23.344;2022-09-21T16:12:39;4.60;;;2.45;;
20026;SDS011;10174;42.688;23.344;2022-09-21T16:15:07;3.03;;;2.30;;
20026;SDS011;10174;42.688;23.344;2022-09-21T16:17:58;5.45;;;2.83;;
20026;SDS011;10174;42.688;23.344;2022-09-21T16:23:15;5.40;;;2.83;;
20026;SDS011;10174;42.688;23.344;2022-09-21T16:25:54;4.55;;;2.35;;
20026;SDS011;10174;42.688;23.344;2022-09-21T16:28:35;7.20;;;3.58;;
20026;SDS011;10174;42.688;23.344;2022-09-21T16:31:19;7.70;;;3.13;;
20026;SDS011;10174;42.688;23.344;2022-09-21T16:38:44;9.90;;;3.17;;
20026;SDS011;10174;42.688;23.344;2022-09-21T16:41:20;7.90;;;2.88;;
20026;SDS011;10174;42.688;23.344;2022-09-21T16:43:47;9.65;;;2.67;;
20026;SDS011;10174;42.688;23.344;2022-09-21T16:46:15;6.43;;;2.65;;
20026;SDS011;10174;42.688;23.344;2022-09-21T16:48:42;6.13;;;2.55;;
20026;SDS011;10174;42.688;23.344;2022-09-21T16:51:12;6.15;;;3.10;;
20026;SDS011;10174;42.688;23.344;2022-09-21T16:53:39;18.25;;;3.97;;
20026;SDS011;10174;42.688;23.344;2022-09-21T16:56:04;10.80;;;3.78;;
20026;SDS011;10174;42.688;23.344;2022-09-21T16:58:38;11.98;;;4.45;;
20026;SDS011;10174;42.688;23.344;2022-09-21T17:01:06;14.70;;;4.07;;
20026;SDS011;10174;42.688;23.344;2022-09-21T17:03:34;6.78;;;4.00;;
20026;SDS011;10174;42.688;23.344;2022-09-21T17:05:59;7.53;;;4.13;;
20026;SDS011;10174;42.688;23.344;2022-09-21T17:08:25;8.13;;;4.20;;
20026;SDS011;10174;42.688;23.344;2022-09-21T17:10:51;10.45;;;3.60;;
20026;SDS011;10174;42.688;23.344;2022-09-21T17:13:17;8.70;;;4.88;;
20026;SDS011;10174;42.688;23.344;2022-09-21T17:15:43;8.32;;;4.55;;
20026;SDS011;10174;42.688;23.344;2022-09-21T17:18:11;9.82;;;4.72;;
20026;SDS011;10174;42.688;23.344;2022-09-21T17:20:41;11.63;;;4.68;;
20026;SDS011;10174;42.688;23.344;2022-09-21T17:23:08;11.10;;;4.20;;
20026;SDS011;10174;42.688;23.344;2022-09-21T17:25:35;10.07;;;5.22;;
20026;SDS011;10174;42.688;23.344;2022-09-21T17:28:01;10.75;;;5.78;;
20026;SDS011;10174;42.688;23.344;2022-09-21T17:30:28;14.50;;;6.45;;
20026;SDS011;10174;42.688;23.344;2022-09-21T17:32:54;11.73;;;6.75;;
20026;SDS011;10174;42.688;23.344;2022-09-21T17:35:39;11.10;;;6.50;;
20026;SDS011;10174;42.688;23.344;2022-09-21T17:38:05;16.25;;;7.03;;
20026;SDS011;10174;42.688;23.344;2022-09-21T17:40:34;11.00;;;7.15;;
20026;SDS011;10174;42.688;23.344;2022-09-21T17:43:27;12.18;;;7.45;;
20026;SDS011;10174;42.688;23.344;2022-09-21T17:48:37;10.60;;;7.50;;
20026;SDS011;10174;42.688;23.344;2022-09-21T17:51:04;11.10;;;7.07;;
20026;SDS011;10174;42.688;23.344;2022-09-21T17:53:30;12.32;;;7.20;;
20026;SDS011;10174;42.688;23.344;2022-09-21T17:56:07;12.60;;;7.57;;
20026;SDS011;10174;42.688;23.344;2022-09-21T17:58:50;10.88;;;6.95;;
20026;SDS011;10174;42.688;23.344;2022-09-21T18:04:00;11.93;;;7.57;;
20026;SDS011;10174;42.688;23.344;2022-09-21T18:06:26;10.82;;;7.38;;
20026;SDS011;10174;42.688;23.344;2022-09-21T18:08:52;11.93;;;7.45;;
20026;SDS011;10174;42.688;23.344;2022-09-21T18:24:55;11.40;;;8.13;;
20026;SDS011;10174;42.688;23.344;2022-09-21T18:27:21;15.77;;;8.70;;
20026;SDS011;10174;42.688;23.344;2022-09-21T18:29:48;13.65;;;8.60;;
20026;SDS011;10174;42.688;23.344;2022-09-21T18:35:20;15.52;;;7.85;;
20026;SDS011;10174;42.688;23.344;2022-09-21T18:46:11;21.67;;;18.73;;
20026;SDS011;10174;42.688;23.344;2022-09-21T18:51:38;16.80;;;9.63;;
20026;SDS011;10174;42.688;23.344;2022-09-21T18:54:06;18.83;;;9.50;;
20026;SDS011;10174;42.688;23.344;2022-09-21T18:56:37;18.33;;;8.60;;
20026;SDS011;10174;42.688;23.344;2022-09-21T18:59:03;17.73;;;9.35;;
20026;SDS011;10174;42.688;23.344;2022-09-21T19:01:31;12.75;;;8.88;;
20026;SDS011;10174;42.688;23.344;2022-09-21T19:03:58;17.50;;;9.57;;